Naikaimaru No.25 — JD2137 — position and weather

sailwx.info

Track history (hours):
 
Tides and Currents Weather Stations Pressure Air Temp Water Temp Dewpoint Dewpoint Depression Visibility Wind Speed Wind Dir Waves Ship Positions

Naikaimaru No.25

Last reported at 2017-Nov-19 01:00 UTC. Time now 2017-Nov-19 01:16 UTC.
Position N 35°22' E 139°40'.

Length 104 m; draft 5.2 m.

Type: Tanker. MMSI: 431501829.

Date/timePositionNaut miles runAvg speedWind from/ knotsBaromVisibWave heightAir tempDewpointWater temp
2017-Nov-19 01:00N 35°22' E 139°40'0 0.0
2017-Nov-19 00:30N 35°22' E 139°40'0 0.0
2017-Nov-19 00:00N 35°22' E 139°40'0 0.1
2017-Nov-18 23:30N 35°22' E 139°40'0 0.0
2017-Nov-18 23:00N 35°22' E 139°40'0 0.0
2017-Nov-18 22:31N 35°22' E 139°40'0 0.0
2017-Nov-18 22:00N 35°22' E 139°40'0 0.0
2017-Nov-18 21:30N 35°22' E 139°40'0 0.0
2017-Nov-18 21:00N 35°22' E 139°40'0 0.0
2017-Nov-18 20:30N 35°22' E 139°40'0 0.0
2017-Nov-18 20:00N 35°22' E 139°40'0 0.0
2017-Nov-18 19:30N 35°22' E 139°40'0 0.0
2017-Nov-18 19:00N 35°22' E 139°40'0 0.0
2017-Nov-18 18:30N 35°22' E 139°40'0 0.0
2017-Nov-18 18:00N 35°22' E 139°40'0 0.0
2017-Nov-18 17:30N 35°22' E 139°40'0 0.0
2017-Nov-18 17:00N 35°22' E 139°40'0 0.0
2017-Nov-18 16:30N 35°22' E 139°40'0 0.0
2017-Nov-18 16:01N 35°22' E 139°40'0 0.0
2017-Nov-18 15:30N 35°22' E 139°40'0 0.0
2017-Nov-18 15:00N 35°22' E 139°40'0 0.0
2017-Nov-18 14:30N 35°22' E 139°40'0 0.0
2017-Nov-18 14:00N 35°22' E 139°40'0 0.0
2017-Nov-18 13:30N 35°22' E 139°40'0 0.0
2017-Nov-18 12:58N 35°22' E 139°40'0 0.0
2017-Nov-18 12:28N 35°22' E 139°40'0 0.0
2017-Nov-18 11:58N 35°22' E 139°40'0 0.0
2017-Nov-18 11:28N 35°22' E 139°40'0 0.0
2017-Nov-18 10:58N 35°22' E 139°40'0 0.0
2017-Nov-18 10:25N 35°22' E 139°40'0 0.0
2017-Nov-18 09:58N 35°22' E 139°40'0 0.9
2017-Nov-18 09:30N 35°22' E 139°40'2 3.9
2017-Nov-18 08:57N 35°24' E 139°40'0 0.0
2017-Nov-18 08:30N 35°24' E 139°40'0 0.0
2017-Nov-18 08:00N 35°24' E 139°40'0 0.0
2017-Nov-18 07:27N 35°24' E 139°40'0 0.0
2017-Nov-18 06:57N 35°24' E 139°40'0 0.0
2017-Nov-18 06:27N 35°24' E 139°40'0 0.0
2017-Nov-18 05:57N 35°24' E 139°40'0 0.0
2017-Nov-18 05:27N 35°24' E 139°40'0 0.0
2017-Nov-18 04:57N 35°24' E 139°40'0 0.0
2017-Nov-18 04:21N 35°24' E 139°40'0 0.0
2017-Nov-18 03:57N 35°24' E 139°40'0 0.0
2017-Nov-18 03:21N 35°24' E 139°40'0 0.0
2017-Nov-18 02:57N 35°24' E 139°40'0 0.0
2017-Nov-18 02:27N 35°24' E 139°40'0 0.0
2017-Nov-18 01:57N 35°24' E 139°40'0 0.1
2017-Nov-18 01:30N 35°24' E 139°40'2 3.9
2017-Nov-18 01:00N 35°23' E 139°41'0 0.2
2017-Nov-18 00:30N 35°23' E 139°41'0 0.0
2017-Nov-18 00:00N 35°23' E 139°41'0 0.1
2017-Nov-17 23:24N 35°22' E 139°41'0 0.0
2017-Nov-17 23:00N 35°22' E 139°41'0 0.0
2017-Nov-17 22:30N 35°22' E 139°41'0 0.0
2017-Nov-17 22:00N 35°22' E 139°41'0 0.1
2017-Nov-17 21:24N 35°22' E 139°41'0 0.0
2017-Nov-17 21:00N 35°22' E 139°41'0 0.0
2017-Nov-17 20:30N 35°22' E 139°41'0 0.1
2017-Nov-17 20:00N 35°22' E 139°41'0 0.1
2017-Nov-17 19:30N 35°22' E 139°41'0 0.4
2017-Nov-17 19:01N 35°23' E 139°41'511.0
2017-Nov-17 18:31N 35°26' E 139°46'713.3
2017-Nov-17 17:58N 35°30' E 139°53'7 0.2
2017-Nov-16 11:46N 35°31' E 140°02'1 2.3
2017-Nov-16 11:24N 35°32' E 140°01'1 0.0
2017-Nov-15 17:29N 35°32' E 140°01'612.8
2017-Nov-15 17:00N 35°30' E 139°53'713.4
2017-Nov-15 16:31N 35°25' E 139°48'713.2
2017-Nov-15 16:00N 35°19' E 139°44'612.7
2017-Nov-15 15:30N 35°13' E 139°47'612.8
2017-Nov-15 15:00N 35°07' E 139°46'613.0
2017-Nov-15 14:30N 35°01' E 139°44'711.7
2017-Nov-15 13:53N 34°54' E 139°46'  
2017-Nov-10 13:10N 34°54' E 139°45'314.5
2017-Nov-10 12:58N 34°57' E 139°44'613.6
2017-Nov-10 12:30N 35°03' E 139°44'713.3
2017-Nov-10 12:00N 35°09' E 139°46'613.0
2017-Nov-10 11:30N 35°16' E 139°46'713.4
2017-Nov-10 11:00N 35°22' E 139°42'4 7.2
2017-Nov-10 10:30N 35°25' E 139°39'0 0.0
2017-Nov-10 10:00N 35°25' E 139°39'0 0.0
2017-Nov-10 09:30N 35°25' E 139°39'0 0.0
2017-Nov-10 09:00N 35°25' E 139°39'0 0.0
2017-Nov-10 08:30N 35°25' E 139°39'0 0.0
2017-Nov-10 08:00N 35°25' E 139°39'0 0.0
2017-Nov-10 07:30N 35°25' E 139°39'0 0.0
2017-Nov-10 07:00N 35°25' E 139°39'0 0.0
2017-Nov-10 06:30N 35°25' E 139°39'0 0.0
2017-Nov-10 06:00N 35°25' E 139°39'0 0.0
2017-Nov-10 05:30N 35°25' E 139°39'0 0.0
2017-Nov-10 05:00N 35°25' E 139°39'0 0.0
2017-Nov-10 04:30N 35°25' E 139°39'0 0.2
2017-Nov-10 04:00N 35°25' E 139°39'3 6.1
2017-Nov-10 03:30N 35°22' E 139°42'1 1.9
2017-Nov-10 02:47N 35°22' E 139°43'0 0.0
2017-Nov-10 02:23N 35°22' E 139°43'0 0.0
2017-Nov-10 01:53N 35°22' E 139°43'0 0.0
2017-Nov-10 01:29N 35°22' E 139°43'0 0.0
2017-Nov-10 00:05N 35°22' E 139°43'0 0.0
2017-Nov-09 23:35N 35°22' E 139°43'0 0.0
2017-Nov-09 23:23N 35°22' E 139°43'0 0.0
2017-Nov-09 22:59N 35°22' E 139°43'0 0.0
2017-Nov-09 22:29N 35°22' E 139°43'0 0.0
2017-Nov-09 21:47N 35°22' E 139°43'0 0.0
2017-Nov-09 21:29N 35°22' E 139°43'0 0.1
2017-Nov-09 20:56N 35°22' E 139°43'0 0.0
2017-Nov-09 20:29N 35°22' E 139°43'0 0.1
2017-Nov-09 19:59N 35°22' E 139°43'0 0.0
2017-Nov-09 19:29N 35°22' E 139°43'0 0.0
2017-Nov-09 13:46N 35°22' E 139°43'0 0.0
2017-Nov-09 13:16N 35°22' E 139°43'0 0.0
2017-Nov-09 12:52N 35°22' E 139°43'0 0.0
2017-Nov-09 12:22N 35°22' E 139°43'0 0.0
2017-Nov-09 11:58N 35°22' E 139°43'0 0.0
2017-Nov-09 11:28N 35°22' E 139°43'0 0.1
2017-Nov-09 10:46N 35°22' E 139°43'0 0.0
2017-Nov-09 10:07N 35°22' E 139°43'0 0.0
2017-Nov-09 09:55N 35°22' E 139°43'0 0.0
2017-Nov-09 09:25N 35°22' E 139°43'0 0.0
2017-Nov-09 08:58N 35°22' E 139°43'0 0.0
2017-Nov-09 08:25N 35°22' E 139°43'0 0.0
2017-Nov-09 08:00N 35°22' E 139°43'0 0.1
2017-Nov-09 07:30N 35°22' E 139°43'0 0.1
2017-Nov-09 07:00N 35°22' E 139°43'0 0.0
2017-Nov-09 06:30N 35°22' E 139°43'0 0.0
2017-Nov-09 06:00N 35°22' E 139°43'0 0.0
2017-Nov-09 05:31N 35°22' E 139°43'0 0.0
2017-Nov-09 04:54N 35°22' E 139°43'0 0.3
2017-Nov-09 04:30N 35°22' E 139°44'510.7
2017-Nov-09 04:00N 35°26' E 139°47'714.0
2017-Nov-09 03:30N 35°30' E 139°54'  
Track history (hours):
 
Tides and Currents Weather Stations Pressure Air Temp Water Temp Dewpoint Dewpoint Depression Visibility Wind Speed Wind Dir Waves Ship Positions

Naikaimaru No.25

Last reported at 2017-Nov-19 01:00 UTC. Time now 2017-Nov-19 01:16 UTC.
Position N 35°22' E 139°40'.

Length 104 m; draft 5.2 m.

Type: Tanker. MMSI: 431501829.

Date/timePositionNaut miles runAvg speedWind from/ knotsBaromVisibWave heightAir tempDewpointWater temp
2017-Nov-19 01:00N 35°22' E 139°40'0 0.0
2017-Nov-19 00:30N 35°22' E 139°40'0 0.0
2017-Nov-19 00:00N 35°22' E 139°40'0 0.1
2017-Nov-18 23:30N 35°22' E 139°40'0 0.0
2017-Nov-18 23:00N 35°22' E 139°40'0 0.0
2017-Nov-18 22:31N 35°22' E 139°40'0 0.0
2017-Nov-18 22:00N 35°22' E 139°40'0 0.0
2017-Nov-18 21:30N 35°22' E 139°40'0 0.0
2017-Nov-18 21:00N 35°22' E 139°40'0 0.0
2017-Nov-18 20:30N 35°22' E 139°40'0 0.0
2017-Nov-18 20:00N 35°22' E 139°40'0 0.0
2017-Nov-18 19:30N 35°22' E 139°40'0 0.0
2017-Nov-18 19:00N 35°22' E 139°40'0 0.0
2017-Nov-18 18:30N 35°22' E 139°40'0 0.0
2017-Nov-18 18:00N 35°22' E 139°40'0 0.0
2017-Nov-18 17:30N 35°22' E 139°40'0 0.0
2017-Nov-18 17:00N 35°22' E 139°40'0 0.0
2017-Nov-18 16:30N 35°22' E 139°40'0 0.0
2017-Nov-18 16:01N 35°22' E 139°40'0 0.0
2017-Nov-18 15:30N 35°22' E 139°40'0 0.0
2017-Nov-18 15:00N 35°22' E 139°40'0 0.0
2017-Nov-18 14:30N 35°22' E 139°40'0 0.0
2017-Nov-18 14:00N 35°22' E 139°40'0 0.0
2017-Nov-18 13:30N 35°22' E 139°40'0 0.0
2017-Nov-18 12:58N 35°22' E 139°40'0 0.0
2017-Nov-18 12:28N 35°22' E 139°40'0 0.0
2017-Nov-18 11:58N 35°22' E 139°40'0 0.0
2017-Nov-18 11:28N 35°22' E 139°40'0 0.0
2017-Nov-18 10:58N 35°22' E 139°40'0 0.0
2017-Nov-18 10:25N 35°22' E 139°40'0 0.0
2017-Nov-18 09:58N 35°22' E 139°40'0 0.9
2017-Nov-18 09:30N 35°22' E 139°40'2 3.9
2017-Nov-18 08:57N 35°24' E 139°40'0 0.0
2017-Nov-18 08:30N 35°24' E 139°40'0 0.0
2017-Nov-18 08:00N 35°24' E 139°40'0 0.0
2017-Nov-18 07:27N 35°24' E 139°40'0 0.0
2017-Nov-18 06:57N 35°24' E 139°40'0 0.0
2017-Nov-18 06:27N 35°24' E 139°40'0 0.0
2017-Nov-18 05:57N 35°24' E 139°40'0 0.0
2017-Nov-18 05:27N 35°24' E 139°40'0 0.0
2017-Nov-18 04:57N 35°24' E 139°40'0 0.0
2017-Nov-18 04:21N 35°24' E 139°40'0 0.0
2017-Nov-18 03:57N 35°24' E 139°40'0 0.0
2017-Nov-18 03:21N 35°24' E 139°40'0 0.0
2017-Nov-18 02:57N 35°24' E 139°40'0 0.0
2017-Nov-18 02:27N 35°24' E 139°40'0 0.0
2017-Nov-18 01:57N 35°24' E 139°40'0 0.1
2017-Nov-18 01:30N 35°24' E 139°40'2 3.9
2017-Nov-18 01:00N 35°23' E 139°41'0 0.2
2017-Nov-18 00:30N 35°23' E 139°41'0 0.0
2017-Nov-18 00:00N 35°23' E 139°41'0 0.1
2017-Nov-17 23:24N 35°22' E 139°41'0 0.0
2017-Nov-17 23:00N 35°22' E 139°41'0 0.0
2017-Nov-17 22:30N 35°22' E 139°41'0 0.0
2017-Nov-17 22:00N 35°22' E 139°41'0 0.1
2017-Nov-17 21:24N 35°22' E 139°41'0 0.0
2017-Nov-17 21:00N 35°22' E 139°41'0 0.0
2017-Nov-17 20:30N 35°22' E 139°41'0 0.1
2017-Nov-17 20:00N 35°22' E 139°41'0 0.1
2017-Nov-17 19:30N 35°22' E 139°41'0 0.4
2017-Nov-17 19:01N 35°23' E 139°41'511.0
2017-Nov-17 18:31N 35°26' E 139°46'713.3
2017-Nov-17 17:58N 35°30' E 139°53'7 0.2
2017-Nov-16 11:46N 35°31' E 140°02'1 2.3
2017-Nov-16 11:24N 35°32' E 140°01'1 0.0
2017-Nov-15 17:29N 35°32' E 140°01'612.8
2017-Nov-15 17:00N 35°30' E 139°53'713.4
2017-Nov-15 16:31N 35°25' E 139°48'713.2
2017-Nov-15 16:00N 35°19' E 139°44'612.7
2017-Nov-15 15:30N 35°13' E 139°47'612.8
2017-Nov-15 15:00N 35°07' E 139°46'613.0
2017-Nov-15 14:30N 35°01' E 139°44'711.7
2017-Nov-15 13:53N 34°54' E 139°46'  
2017-Nov-10 13:10N 34°54' E 139°45'314.5
2017-Nov-10 12:58N 34°57' E 139°44'613.6
2017-Nov-10 12:30N 35°03' E 139°44'713.3
2017-Nov-10 12:00N 35°09' E 139°46'613.0
2017-Nov-10 11:30N 35°16' E 139°46'713.4
2017-Nov-10 11:00N 35°22' E 139°42'4 7.2
2017-Nov-10 10:30N 35°25' E 139°39'0 0.0
2017-Nov-10 10:00N 35°25' E 139°39'0 0.0
2017-Nov-10 09:30N 35°25' E 139°39'0 0.0
2017-Nov-10 09:00N 35°25' E 139°39'0 0.0
2017-Nov-10 08:30N 35°25' E 139°39'0 0.0
2017-Nov-10 08:00N 35°25' E 139°39'0 0.0
2017-Nov-10 07:30N 35°25' E 139°39'0 0.0
2017-Nov-10 07:00N 35°25' E 139°39'0 0.0
2017-Nov-10 06:30N 35°25' E 139°39'0 0.0
2017-Nov-10 06:00N 35°25' E 139°39'0 0.0
2017-Nov-10 05:30N 35°25' E 139°39'0 0.0
2017-Nov-10 05:00N 35°25' E 139°39'0 0.0
2017-Nov-10 04:30N 35°25' E 139°39'0 0.2
2017-Nov-10 04:00N 35°25' E 139°39'3 6.1
2017-Nov-10 03:30N 35°22' E 139°42'1 1.9
2017-Nov-10 02:47N 35°22' E 139°43'0 0.0
2017-Nov-10 02:23N 35°22' E 139°43'0 0.0
2017-Nov-10 01:53N 35°22' E 139°43'0 0.0
2017-Nov-10 01:29N 35°22' E 139°43'0 0.0
2017-Nov-10 00:05N 35°22' E 139°43'0 0.0
2017-Nov-09 23:35N 35°22' E 139°43'0 0.0
2017-Nov-09 23:23N 35°22' E 139°43'0 0.0
2017-Nov-09 22:59N 35°22' E 139°43'0 0.0
2017-Nov-09 22:29N 35°22' E 139°43'0 0.0
2017-Nov-09 21:47N 35°22' E 139°43'0 0.0
2017-Nov-09 21:29N 35°22' E 139°43'0 0.1
2017-Nov-09 20:56N 35°22' E 139°43'0 0.0
2017-Nov-09 20:29N 35°22' E 139°43'0 0.1
2017-Nov-09 19:59N 35°22' E 139°43'0 0.0
2017-Nov-09 19:29N 35°22' E 139°43'0 0.0
2017-Nov-09 13:46N 35°22' E 139°43'0 0.0
2017-Nov-09 13:16N 35°22' E 139°43'0 0.0
2017-Nov-09 12:52N 35°22' E 139°43'0 0.0
2017-Nov-09 12:22N 35°22' E 139°43'0 0.0
2017-Nov-09 11:58N 35°22' E 139°43'0 0.0
2017-Nov-09 11:28N 35°22' E 139°43'0 0.1
2017-Nov-09 10:46N 35°22' E 139°43'0 0.0
2017-Nov-09 10:07N 35°22' E 139°43'0 0.0
2017-Nov-09 09:55N 35°22' E 139°43'0 0.0
2017-Nov-09 09:25N 35°22' E 139°43'0 0.0
2017-Nov-09 08:58N 35°22' E 139°43'0 0.0
2017-Nov-09 08:25N 35°22' E 139°43'0 0.0
2017-Nov-09 08:00N 35°22' E 139°43'0 0.1
2017-Nov-09 07:30N 35°22' E 139°43'0 0.1
2017-Nov-09 07:00N 35°22' E 139°43'0 0.0
2017-Nov-09 06:30N 35°22' E 139°43'0 0.0
2017-Nov-09 06:00N 35°22' E 139°43'0 0.0
2017-Nov-09 05:31N 35°22' E 139°43'0 0.0
2017-Nov-09 04:54N 35°22' E 139°43'0 0.3
2017-Nov-09 04:30N 35°22' E 139°44'510.7
2017-Nov-09 04:00N 35°26' E 139°47'714.0
2017-Nov-09 03:30N 35°30' E 139°54'  

Dump ship's entire track history